Time;durP1;ratioP1;P1;durP2;ratioP2;P2;SDS_P1;SDS_P2;PMS_P1;PMS_P2;Temp;Humidity;BMP_temperature;BMP_pressure;BME280_temperature;BME280_humidity;BME280_pressure;Samples;Min_cycle;Max_cycle;Signal;HPM_P1;HPM_P2
2021/06/19 00:02:02;;;;;;;19.75;15.18;;;;;;;27.32;86.89;100503.97;4973057;28;20030;-77
2021/06/19 00:04:32;;;;;;;19.90;15.38;;;;;;;27.28;88.43;100504.16;4990169;28;20034;-77
2021/06/19 00:07:01;;;;;;;17.23;15.50;;;;;;;27.34;86.31;100495.97;4990694;28;20488;-77
2021/06/19 00:09:27;;;;;;;16.65;14.95;;;;;;;27.28;86.80;100500.59;4982870;28;20034;-77
2021/06/19 00:11:53;;;;;;;19.02;15.10;;;;;;;27.22;87.69;100494.97;4982063;28;20038;-77
2021/06/19 00:14:19;;;;;;;18.45;15.27;;;;;;;27.16;89.77;100485.03;4988916;28;20064;-77
2021/06/19 00:16:45;;;;;;;17.90;15.07;;;;;;;27.20;88.78;100486.38;4989517;28;20117;-77
2021/06/19 00:19:10;;;;;;;16.27;14.60;;;;;;;27.18;89.56;100482.53;4990883;28;20165;-77
2021/06/19 00:21:36;;;;;;;17.67;15.35;;;;;;;27.16;89.26;100477.50;4994032;28;20030;-77
2021/06/19 00:24:02;;;;;;;18.95;15.73;;;;;;;27.15;89.64;100484.28;4984325;28;20497;-77
2021/06/19 00:26:28;;;;;;;17.42;15.60;;;;;;;27.22;87.41;100483.13;4987900;28;20437;-76
2021/06/19 00:28:53;;;;;;;17.45;15.00;;;;;;;27.18;86.50;100488.06;4986122;28;20043;-77
2021/06/19 00:31:19;;;;;;;16.83;15.05;;;;;;;27.14;87.44;100485.50;4983027;28;20035;-77
2021/06/19 00:33:44;;;;;;;17.05;15.40;;;;;;;27.10;87.77;100482.13;4987939;28;20149;-77
2021/06/19 00:36:10;;;;;;;18.73;15.77;;;;;;;27.01;89.64;100482.22;4992248;28;20050;-77
2021/06/19 00:38:35;;;;;;;16.58;14.90;;;;;;;26.92;90.91;100482.28;4994483;28;20128;-77
2021/06/19 00:41:01;;;;;;;19.35;14.82;;;;;;;26.97;91.12;100506.50;4969721;28;20058;-77
2021/06/19 00:43:26;;;;;;;22.58;16.83;;;;;;;27.06;89.38;100536.13;4975129;28;20497;-77
2021/06/19 00:45:52;;;;;;;22.65;19.58;;;;;;;27.01;89.75;100534.75;4987283;28;20445;-77
2021/06/19 00:48:18;;;;;;;25.63;20.55;;;;;;;26.89;91.03;100505.31;4984189;28;20540;-77
2021/06/19 00:50:43;;;;;;;25.42;20.83;;;;;;;26.89;90.92;100490.75;5007546;28;20038;-77
2021/06/19 00:53:09;;;;;;;26.42;19.92;;;;;;;26.92;89.95;100498.09;4984589;28;20043;-77
2021/06/19 00:55:35;;;;;;;22.83;19.33;;;;;;;26.94;89.83;100512.22;4987005;28;20101;-77
2021/06/19 00:58:03;;;;;;;21.10;18.65;;;;;;;26.90;90.54;100520.69;4974780;28;20128;-77
2021/06/19 01:00:29;;;;;;;24.10;18.90;;;;;;;26.75;91.51;100520.59;4986253;28;20084;-77
2021/06/19 01:02:59;;;;;;;20.77;17.98;;;;;;;26.69;92.04;100516.19;4987693;28;20222;-77
2021/06/19 01:05:26;;;;;;;25.48;19.05;;;;;;;26.69;92.11;100514.16;4989328;28;20038;-77
2021/06/19 01:07:54;;;;;;;21.80;19.25;;;;;;;26.61;92.59;100513.00;4984962;28;20026;-77
2021/06/19 01:10:19;;;;;;;26.25;20.05;;;;;;;26.68;92.01;100518.16;5004580;28;20552;-76
2021/06/19 01:12:46;;;;;;;26.70;19.33;;;;;;;26.72;91.28;100510.50;4993774;28;20160;-77
2021/06/19 01:15:12;;;;;;;22.63;18.90;;;;;;;26.68;91.21;100495.28;4987972;28;20042;-77
2021/06/19 01:17:38;;;;;;;27.33;19.95;;;;;;;26.47;91.37;100486.03;4990245;28;20568;-77
2021/06/19 01:20:10;;;;;;;24.20;18.88;;;;;;;26.51;91.41;100474.81;4990263;28;20150;-77
2021/06/19 01:22:41;;;;;;;22.85;19.08;;;;;;;26.37;92.39;100470.72;4988750;28;20042;-77
2021/06/19 01:25:10;;;;;;;20.98;18.45;;;;;;;26.41;92.85;100476.84;4987662;28;20053;-77
2021/06/19 01:27:36;;;;;;;22.10;18.27;;;;;;;26.37;93.81;100486.53;5008292;28;20030;-77
2021/06/19 01:30:06;;;;;;;23.10;20.70;;;;;;;26.60;91.86;100496.84;4990579;28;20101;-77
2021/06/19 01:32:34;;;;;;;26.35;20.48;;;;;;;26.54;91.86;100485.69;4990665;28;20471;-77
2021/06/19 01:35:00;;;;;;;22.35;19.08;;;;;;;26.44;92.39;100478.66;4989246;28;20057;-77
2021/06/19 01:37:27;;;;;;;24.17;20.77;;;;;;;26.41;92.73;100490.66;5006787;28;20030;-77
2021/06/19 01:40:20;;;;;;;24.15;19.60;;;;;;;26.23;93.84;100487.97;4990416;28;20089;-77
2021/06/19 01:42:48;;;;;;;26.50;20.35;;;;;;;26.29;93.14;100485.31;4981718;28;20035;-77
2021/06/19 01:45:19;;;;;;;26.17;20.40;;;;;;;26.39;91.90;100489.59;4982357;28;20049;-77
2021/06/19 01:47:45;;;;;;;23.58;20.02;;;;;;;26.36;92.35;100485.78;4972174;28;20035;-77
2021/06/19 01:50:14;;;;;;;23.45;20.95;;;;;;;26.34;92.60;100496.53;5005579;28;20037;-77
2021/06/19 01:52:40;;;;;;;25.55;21.05;;;;;;;26.27;93.08;100496.84;4989080;28;20030;-77
2021/06/19 01:55:06;;;;;;;24.42;21.38;;;;;;;26.21;93.40;100487.66;4986933;28;20035;-77
2021/06/19 01:57:33;;;;;;;23.60;20.92;;;;;;;26.14;93.86;100488.00;4991473;28;20030;-77
2021/06/19 02:00:08;;;;;;;23.77;20.10;;;;;;;26.10;93.66;100483.88;5022540;23;20049;-74
2021/06/19 02:02:40;;;;;;;26.60;20.45;;;;;;;26.03;94.17;100490.47;5030301;28;20041;-73
2021/06/19 02:05:08;;;;;;;22.27;19.15;;;;;;;25.97;94.50;100502.59;5030369;28;20108;-74
2021/06/19 02:07:44;;;;;;;23.83;20.13;;;;;;;25.91;94.42;100488.66;5030830;28;20036;-74
2021/06/19 02:10:10;;;;;;;24.60;19.70;;;;;;;25.88;95.33;100489.56;5013869;28;20057;-73
2021/06/19 02:12:36;;;;;;;23.75;20.92;;;;;;;25.84;95.21;100478.69;5031486;28;20025;-73
2021/06/19 02:15:01;;;;;;;23.15;19.83;;;;;;;25.85;95.47;100474.72;5007825;28;20056;-74
2021/06/19 02:17:27;;;;;;;23.70;19.60;;;;;;;25.83;95.63;100479.16;5016847;28;20184;-74
2021/06/19 02:19:52;;;;;;;23.52;20.25;;;;;;;25.89;94.76;100482.81;5008973;28;20567;-74
2021/06/19 02:22:18;;;;;;;24.08;20.33;;;;;;;25.86;94.57;100475.47;5005595;28;20448;-74
2021/06/19 02:24:43;;;;;;;23.40;20.30;;;;;;;25.79;95.22;100476.56;4987698;28;20082;-74
2021/06/19 02:27:11;;;;;;;21.30;19.00;;;;;;;25.76;95.54;100480.22;5017788;28;20041;-74
2021/06/19 02:29:37;;;;;;;22.40;19.98;;;;;;;25.74;95.61;100474.44;5018707;28;20034;-73
2021/06/19 02:32:04;;;;;;;22.40;19.70;;;;;;;25.74;95.33;100468.13;5008170;28;20037;-74
2021/06/19 02:34:30;;;;;;;22.52;19.42;;;;;;;25.74;95.11;100468.91;5014364;28;20034;-74
2021/06/19 02:36:55;;;;;;;23.30;20.65;;;;;;;25.70;95.59;100473.81;5026287;28;20033;-73
2021/06/19 02:39:21;;;;;;;23.40;20.20;;;;;;;25.67;95.85;100469.22;5012870;28;20072;-73
2021/06/19 02:41:46;;;;;;;27.73;21.23;;;;;;;25.63;95.87;100470.59;5027261;28;20087;-74
2021/06/19 02:44:12;;;;;;;22.50;20.08;;;;;;;25.60;96.09;100479.81;5008757;28;20492;-74
2021/06/19 02:46:37;;;;;;;23.40;20.10;;;;;;;25.60;96.30;100477.81;5018752;28;20415;-73
2021/06/19 02:49:03;;;;;;;24.17;19.20;;;;;;;25.59;96.19;100483.81;5025315;28;20033;-73
2021/06/19 02:51:28;;;;;;;24.00;20.77;;;;;;;25.61;95.88;100479.34;5019555;28;20033;-74
2021/06/19 02:53:54;;;;;;;24.58;20.88;;;;;;;25.56;96.12;100474.44;5024494;28;20037;-74
2021/06/19 02:56:19;;;;;;;24.15;20.35;;;;;;;25.48;96.58;100473.22;5008024;28;20500;-73
2021/06/19 02:58:45;;;;;;;25.38;20.67;;;;;;;25.52;96.19;100473.84;5029547;28;20125;-73
2021/06/19 03:01:10;;;;;;;25.38;20.15;;;;;;;25.44;97.16;100483.66;5001036;28;20038;-73
2021/06/19 03:03:36;;;;;;;22.08;19.80;;;;;;;25.49;96.81;100485.03;5014856;28;20559;-73
2021/06/19 03:06:02;;;;;;;25.02;20.70;;;;;;;25.47;96.53;100488.25;5022563;28;20034;-74
2021/06/19 03:08:30;;;;;;;24.27;19.27;;;;;;;25.32;97.58;100492.81;5016314;28;20040;-73
2021/06/19 03:10:56;;;;;;;23.90;19.85;;;;;;;25.40;97.32;100491.31;5025289;28;20037;-73
2021/06/19 03:13:22;;;;;;;25.05;20.70;;;;;;;25.41;97.05;100492.09;5024220;28;20116;-73
2021/06/19 03:15:47;;;;;;;26.33;20.00;;;;;;;25.47;97.12;100495.75;5002482;28;20077;-73
2021/06/19 03:18:12;;;;;;;25.20;20.45;;;;;;;25.41;97.46;100500.34;5024645;28;20026;-73
2021/06/19 03:20:38;;;;;;;25.48;20.48;;;;;;;25.41;97.50;100508.63;5022265;28;20391;-73
2021/06/19 03:23:05;;;;;;;22.83;20.40;;;;;;;25.35;97.82;100510.44;5029755;28;20037;-73
2021/06/19 03:25:40;;;;;;;22.52;19.90;;;;;;;25.32;98.40;100500.34;5021109;28;20395;-73
2021/06/19 03:28:06;;;;;;;27.80;20.38;;;;;;;25.38;98.46;100512.25;5027080;28;20185;-73
2021/06/19 03:30:34;;;;;;;22.00;19.58;;;;;;;25.39;98.33;100513.81;5028168;28;20131;-73
2021/06/19 03:33:01;;;;;;;24.38;20.52;;;;;;;25.46;98.19;100519.03;5014179;28;20519;-74
2021/06/19 03:35:26;;;;;;;23.45;20.05;;;;;;;25.48;98.45;100522.09;5020908;28;20041;-73
2021/06/19 03:37:53;;;;;;;24.63;20.70;;;;;;;25.49;98.18;100521.63;5007551;28;20034;-73
2021/06/19 03:40:19;;;;;;;23.17;20.50;;;;;;;25.42;98.38;100521.97;5030156;28;20511;-73
2021/06/19 03:42:46;;;;;;;24.27;21.67;;;;;;;25.59;97.99;100511.41;5019128;28;20053;-73
2021/06/19 03:45:13;;;;;;;25.40;21.85;;;;;;;25.60;97.04;100512.91;5012003;28;20116;-73
2021/06/19 03:47:40;;;;;;;27.40;22.92;;;;;;;25.59;97.90;100511.41;5030653;28;20037;-73
2021/06/19 03:50:08;;;;;;;27.85;22.17;;;;;;;25.60;97.56;100512.91;5017725;28;20021;-73
2021/06/19 03:52:33;;;;;;;27.13;22.00;;;;;;;25.62;98.02;100508.47;5016846;28;20121;-73
2021/06/19 03:54:59;;;;;;;30.40;23.70;;;;;;;25.74;96.65;100507.56;5018595;28;20442;-74
2021/06/19 03:57:26;;;;;;;26.02;22.45;;;;;;;25.76;95.90;100505.06;5011935;28;20396;-73
2021/06/19 03:59:53;;;;;;;28.77;23.10;;;;;;;25.77;97.11;100511.34;5010097;28;20029;-74
2021/06/19 04:02:19;;;;;;;32.35;22.83;;;;;;;25.80;96.65;100499.41;4994952;28;20033;-74
2021/06/19 04:04:45;;;;;;;27.15;23.38;;;;;;;25.81;96.54;100507.22;5038025;28;20039;-73
2021/06/19 04:07:11;;;;;;;26.95;22.98;;;;;;;25.83;96.78;100506.75;5029232;28;20483;-73
2021/06/19 04:09:38;;;;;;;30.30;24.27;;;;;;;25.91;95.48;100510.72;5022078;28;20030;-75
2021/06/19 04:12:04;;;;;;;25.35;22.42;;;;;;;25.89;95.51;100521.47;5002058;28;20033;-73
2021/06/19 04:14:29;;;;;;;26.83;23.92;;;;;;;26.00;94.30;100516.22;5007980;28;20491;-73
2021/06/19 04:16:55;;;;;;;28.10;23.63;;;;;;;25.96;95.05;100510.09;5007713;28;20103;-73
2021/06/19 04:19:20;;;;;;;30.75;23.13;;;;;;;26.00;94.02;100504.44;5015342;28;20518;-77
2021/06/19 04:21:45;;;;;;;30.98;24.60;;;;;;;26.02;93.23;100513.00;5003449;28;20103;-74
2021/06/19 04:24:11;;;;;;;29.38;23.38;;;;;;;26.01;94.38;100503.97;5014679;28;20030;-74
2021/06/19 04:26:36;;;;;;;28.00;24.15;;;;;;;26.02;93.58;100511.00;5024779;28;20068;-73
2021/06/19 04:29:02;;;;;;;29.35;22.45;;;;;;;25.99;94.98;100511.94;5016604;28;20029;-74
2021/06/19 04:31:29;;;;;;;26.15;23.45;;;;;;;26.01;96.05;100525.28;5019613;28;20407;-74
2021/06/19 04:33:55;;;;;;;25.63;22.88;;;;;;;26.10;95.22;100525.28;5027901;28;20041;-73
2021/06/19 04:36:20;;;;;;;25.73;22.55;;;;;;;26.11;95.52;100526.84;5020983;28;20037;-73
2021/06/19 04:38:45;;;;;;;26.63;23.52;;;;;;;26.20;94.40;100526.78;5013523;28;20103;-73
2021/06/19 04:41:23;;;;;;;25.50;22.17;;;;;;;26.16;95.13;100526.97;5017929;28;20495;-73
2021/06/19 04:46:15;;;;;;;27.58;23.52;;;;;;;26.21;95.23;100528.34;5030349;28;20037;-73
2021/06/19 04:48:40;;;;;;;25.02;22.10;;;;;;;26.13;95.75;100530.63;5032127;28;20061;-73
2021/06/19 04:51:06;;;;;;;30.42;21.88;;;;;;;26.22;95.07;100530.63;5031712;28;20033;-75
2021/06/19 04:53:31;;;;;;;27.33;22.05;;;;;;;26.24;94.13;100544.75;5031471;28;20146;-73
2021/06/19 04:56:01;;;;;;;26.88;22.75;;;;;;;26.37;92.31;100542.56;5010209;28;20508;-73
2021/06/19 04:58:26;;;;;;;25.60;22.60;;;;;;;26.39;93.58;100542.84;5002137;28;20033;-73
2021/06/19 05:00:52;;;;;;;27.52;22.95;;;;;;;26.46;94.09;100542.50;5019608;28;20769;-73
2021/06/19 05:03:18;;;;;;;28.02;22.45;;;;;;;26.40;95.30;100549.16;5030622;28;20045;-73
2021/06/19 05:05:44;;;;;;;25.52;22.83;;;;;;;26.48;94.48;100547.59;5027171;28;20025;-73
2021/06/19 05:08:10;;;;;;;26.52;22.92;;;;;;;26.54;94.69;100552.00;5004493;28;20026;-74
2021/06/19 05:10:35;;;;;;;25.95;23.23;;;;;;;26.57;94.00;100548.31;5013285;28;20037;-73
2021/06/19 05:13:01;;;;;;;29.30;24.52;;;;;;;26.61;94.60;100554.44;4992093;28;20107;-74
2021/06/19 05:15:26;;;;;;;29.00;24.15;;;;;;;26.79;93.34;100564.66;5019932;28;20048;-74
2021/06/19 05:17:53;;;;;;;28.02;24.38;;;;;;;27.10;91.18;100565.13;4983095;28;20032;-73
2021/06/19 05:20:19;;;;;;;27.45;24.48;;;;;;;27.33;88.45;100566.41;5015969;28;20022;-74
2021/06/19 05:22:45;;;;;;;27.60;24.08;;;;;;;27.38;89.94;100579.56;5010349;28;20025;-73
2021/06/19 05:25:12;;;;;;;34.30;24.48;;;;;;;27.43;90.22;100570.63;5004795;28;20120;-75
2021/06/19 05:27:38;;;;;;;29.20;23.10;;;;;;;27.43;89.77;100576.16;5027516;28;20033;-73
2021/06/19 05:30:04;;;;;;;29.23;23.63;;;;;;;27.47;89.27;100573.97;5021050;28;20060;-74
2021/06/19 05:32:30;;;;;;;31.02;23.23;;;;;;;27.30;90.45;100567.31;5018083;28;20046;-74
2021/06/19 05:34:55;;;;;;;26.63;23.83;;;;;;;27.13;92.18;100582.78;5024511;28;20029;-75
2021/06/19 05:37:21;;;;;;;27.70;24.23;;;;;;;27.05;92.74;100578.81;5021911;28;20069;-74
2021/06/19 05:39:46;;;;;;;33.50;27.00;;;;;;;27.04;91.16;100577.31;5010001;28;20064;-74
2021/06/19 05:42:12;;;;;;;32.20;27.65;;;;;;;26.89;91.64;100582.00;5027291;28;20017;-74
2021/06/19 05:44:37;;;;;;;35.83;29.63;;;;;;;26.91;92.26;100580.28;5022998;28;20034;-73
2021/06/19 05:47:03;;;;;;;34.83;29.05;;;;;;;26.98;93.05;100581.94;5010920;28;20030;-75
2021/06/19 05:49:29;;;;;;;30.60;27.30;;;;;;;27.60;91.33;100588.34;5027030;28;20040;-73
2021/06/19 05:51:54;;;;;;;31.73;27.25;;;;;;;28.64;84.73;100596.31;5025298;28;20026;-75
2021/06/19 05:54:19;;;;;;;32.10;25.63;;;;;;;29.36;81.08;100592.59;5019485;28;20026;-74
2021/06/19 05:56:45;;;;;;;34.58;24.67;;;;;;;30.03;78.07;100591.38;5017505;28;20095;-74
2021/06/19 05:59:10;;;;;;;30.02;24.20;;;;;;;30.61;74.54;100599.25;5015383;28;20025;-76
2021/06/19 06:01:36;;;;;;;32.15;23.88;;;;;;;31.02;72.58;100603.34;5027611;28;20021;-75
2021/06/19 06:04:01;;;;;;;26.95;22.77;;;;;;;31.34;70.56;100597.72;5016536;28;20557;-74
2021/06/19 06:06:27;;;;;;;26.75;20.88;;;;;;;31.65;69.06;100606.72;4998767;28;20549;-75
2021/06/19 06:08:53;;;;;;;25.63;21.77;;;;;;;31.84;69.87;100612.63;5026906;28;20033;-75
2021/06/19 06:11:18;;;;;;;28.33;21.58;;;;;;;32.01;69.16;100615.47;5023009;28;20482;-74
2021/06/19 06:13:44;;;;;;;24.30;20.77;;;;;;;31.98;68.93;100611.66;5027387;28;20510;-75
2021/06/19 06:16:09;;;;;;;21.17;17.20;;;;;;;31.98;66.36;100610.91;5020470;28;20029;-74
2021/06/19 06:18:35;;;;;;;22.30;19.75;;;;;;;32.00;68.89;100613.97;5020896;28;20030;-75
2021/06/19 06:21:02;;;;;;;22.92;20.10;;;;;;;32.02;68.77;100617.75;5012635;28;20040;-74
2021/06/19 06:23:28;;;;;;;26.88;19.70;;;;;;;32.07;69.32;100617.00;5016336;28;20403;-74
2021/06/19 06:25:54;;;;;;;29.05;19.00;;;;;;;32.11;68.08;100622.34;5024905;28;20033;-75
2021/06/19 06:28:20;;;;;;;22.88;17.83;;;;;;;32.10;67.64;100629.94;5025299;28;20026;-74
2021/06/19 06:30:46;;;;;;;23.60;17.88;;;;;;;32.10;67.66;100631.94;5017230;28;20030;-75
2021/06/19 06:33:12;;;;;;;24.52;17.25;;;;;;;32.08;68.37;100626.13;5021469;28;20083;-75
2021/06/19 06:35:38;;;;;;;21.40;17.08;;;;;;;32.08;68.23;100628.91;5012952;28;20069;-73
2021/06/19 06:38:04;;;;;;;25.58;16.65;;;;;;;32.11;68.89;100625.13;5028718;28;20033;-75
2021/06/19 06:40:30;;;;;;;21.88;15.52;;;;;;;32.07;67.56;100632.97;5028141;28;20029;-75
2021/06/19 06:42:55;;;;;;;19.65;14.35;;;;;;;32.09;68.97;100644.38;4998918;28;20104;-75
2021/06/19 06:45:21;;;;;;;20.23;13.35;;;;;;;32.01;67.51;100640.56;5028469;28;20059;-75
2021/06/19 06:47:46;;;;;;;16.98;12.90;;;;;;;32.03;67.75;100638.03;5026632;28;20029;-74
2021/06/19 06:50:13;;;;;;;15.73;12.98;;;;;;;32.09;67.88;100642.38;5015610;28;20088;-75
2021/06/19 06:52:39;;;;;;;20.08;12.55;;;;;;;32.09;66.13;100645.16;5012270;28;20069;-76
2021/06/19 06:55:07;;;;;;;15.40;11.85;;;;;;;32.19;65.35;100643.63;5001547;28;20065;-76
2021/06/19 06:57:33;;;;;;;14.73;12.02;;;;;;;32.15;64.57;100647.94;5026254;28;20033;-74
2021/06/19 06:59:58;;;;;;;16.77;11.80;;;;;;;32.12;65.46;100652.50;5000429;28;20095;-75
2021/06/19 07:02:25;;;;;;;24.13;11.35;;;;;;;32.15;64.52;100659.88;5025250;28;20137;-76
2021/06/19 07:04:50;;;;;;;19.42;11.48;;;;;;;32.28;63.70;100662.16;5006478;28;20511;-76
2021/06/19 07:07:16;;;;;;;24.02;10.70;;;;;;;32.28;62.80;100656.59;5004350;28;20067;-76
2021/06/19 07:09:41;;;;;;;21.15;10.43;;;;;;;32.19;63.11;100649.19;5008905;28;20036;-75
2021/06/19 07:12:08;;;;;;;16.80;10.57;;;;;;;32.04;63.14;100661.88;5013538;28;20107;-75
2021/06/19 07:14:33;;;;;;;17.45;10.63;;;;;;;32.09;64.85;100663.91;5021181;28;20032;-74
2021/06/19 07:16:59;;;;;;;19.75;10.98;;;;;;;32.09;64.59;100663.91;5017849;28;20414;-75
2021/06/19 07:19:24;;;;;;;23.00;11.10;;;;;;;32.05;64.42;100660.59;4987051;28;20036;-75
2021/06/19 07:21:50;;;;;;;19.92;10.70;;;;;;;31.96;62.12;100653.97;5022884;28;20084;-75
2021/06/19 07:24:15;;;;;;;20.55;9.98;;;;;;;31.98;63.69;100658.31;5022207;28;20029;-75
2021/06/19 07:26:41;;;;;;;17.60;10.60;;;;;;;32.03;65.25;100657.53;4990282;28;20061;-75
2021/06/19 07:29:06;;;;;;;15.93;9.65;;;;;;;32.06;63.04;100662.09;5006501;28;20026;-75
2021/06/19 07:31:32;;;;;;;14.25;9.50;;;;;;;32.16;62.68;100660.63;5027505;28;20042;-75
2021/06/19 07:33:57;;;;;;;13.25;8.98;;;;;;;32.12;63.74;100660.09;4994416;28;20160;-73
2021/06/19 07:36:23;;;;;;;10.90;8.68;;;;;;;32.27;63.96;100655.81;5022354;28;20104;-75
2021/06/19 07:38:48;;;;;;;14.18;8.93;;;;;;;32.33;62.23;100659.38;5024895;28;20053;-73
2021/06/19 07:41:14;;;;;;;16.02;8.90;;;;;;;32.38;61.85;100660.66;5021282;28;20025;-75
2021/06/19 07:43:40;;;;;;;14.95;8.68;;;;;;;32.39;61.53;100654.56;5011576;28;20056;-75
2021/06/19 07:46:07;;;;;;;15.52;8.30;;;;;;;32.56;59.46;100660.22;5027577;28;20030;-75
2021/06/19 07:48:32;;;;;;;14.88;7.28;;;;;;;32.54;59.25;100660.69;5028891;28;20030;-76
2021/06/19 07:50:58;;;;;;;9.77;6.00;;;;;;;32.58;57.03;100666.78;5024100;28;20028;-75
2021/06/19 07:53:24;;;;;;;15.25;6.00;;;;;;;32.74;56.76;100668.06;5027790;28;20503;-75
2021/06/19 07:55:49;;;;;;;13.30;5.80;;;;;;;32.78;56.73;100665.78;5027239;28;20045;-74
2021/06/19 07:58:15;;;;;;;9.30;5.03;;;;;;;32.85;55.39;100665.25;5012219;28;20042;-75
2021/06/19 08:00:42;;;;;;;11.50;5.43;;;;;;;32.85;55.80;100676.44;5002537;23;20132;-77
2021/06/19 08:03:07;;;;;;;8.00;5.50;;;;;;;32.87;56.44;100668.31;4957994;28;20044;-77
2021/06/19 08:05:33;;;;;;;9.40;5.68;;;;;;;32.89;56.28;100665.75;4971455;28;20026;-77
2021/06/19 08:07:58;;;;;;;7.00;4.93;;;;;;;33.09;56.52;100673.91;4980775;28;20046;-77
2021/06/19 08:10:26;;;;;;;6.85;4.35;;;;;;;33.12;52.39;100672.13;4973792;28;20481;-77
2021/06/19 08:12:52;;;;;;;6.30;3.80;;;;;;;33.05;50.79;100672.63;4988622;28;20038;-77
2021/06/19 08:15:18;;;;;;;5.22;3.53;;;;;;;33.03;50.76;100675.19;4977734;28;20090;-76
2021/06/19 08:17:44;;;;;;;7.25;3.22;;;;;;;33.11;51.49;100676.94;4992586;28;20105;-76
2021/06/19 08:20:10;;;;;;;7.43;3.35;;;;;;;33.25;51.67;100675.91;4991692;28;20532;-77
2021/06/19 08:22:35;;;;;;;4.38;3.65;;;;;;;33.36;51.60;100684.25;4989658;28;20562;-77
2021/06/19 08:25:02;;;;;;;5.72;3.30;;;;;;;33.48;51.33;100693.41;4990802;28;20031;-77
2021/06/19 08:27:28;;;;;;;4.65;3.40;;;;;;;33.46;50.70;100685.50;4971437;28;20031;-76
2021/06/19 08:29:54;;;;;;;6.15;3.20;;;;;;;33.53;51.09;100687.81;4986646;28;20527;-77
2021/06/19 08:32:20;;;;;;;6.10;2.80;;;;;;;33.63;49.24;100696.66;4956714;28;20443;-76
2021/06/19 08:34:45;;;;;;;6.70;3.53;;;;;;;33.50;49.66;100691.63;4959012;28;20467;-77
2021/06/19 08:37:11;;;;;;;5.72;2.70;;;;;;;33.64;49.00;100696.13;4974969;28;20040;-76
2021/06/19 08:39:36;;;;;;;5.25;2.65;;;;;;;33.72;48.62;100701.22;4982462;28;20488;-77
2021/06/19 08:42:03;;;;;;;3.15;2.45;;;;;;;33.73;48.49;100697.91;4973592;28;20433;-76
2021/06/19 08:44:30;;;;;;;4.15;2.20;;;;;;;33.78;48.77;100694.31;4973349;28;20038;-77
2021/06/19 08:46:56;;;;;;;2.63;2.22;;;;;;;33.86;49.31;100692.50;4959405;28;20053;-76
2021/06/19 08:49:23;;;;;;;3.50;2.08;;;;;;;33.79;48.15;100695.06;4971418;28;20489;-77
2021/06/19 08:51:57;;;;;;;3.05;2.08;;;;;;;33.85;47.54;100696.59;4972419;28;20076;-77
2021/06/19 08:54:24;;;;;;;4.78;2.13;;;;;;;33.96;47.92;100693.72;4987199;28;20038;-77
2021/06/19 08:56:51;;;;;;;2.92;2.33;;;;;;;33.97;47.37;100688.91;4983395;28;20039;-77
2021/06/19 08:59:17;;;;;;;3.28;2.08;;;;;;;33.96;46.69;100696.53;4973451;28;20054;-77
2021/06/19 09:01:43;;;;;;;5.70;2.05;;;;;;;33.99;47.84;100695.50;4975822;28;20038;-77
2021/06/19 09:04:10;;;;;;;5.82;1.92;;;;;;;34.06;48.54;100697.78;4987528;28;20169;-77
2021/06/19 09:06:41;;;;;;;3.30;1.85;;;;;;;34.03;47.00;100698.06;4960245;28;20045;-77
2021/06/19 09:09:14;;;;;;;;;;;;;;;34.00;45.61;100690.69;4987444;28;20564;-77
2021/06/19 09:11:45;;;;;;;6.00;2.00;;;;;;;34.15;46.64;100699.50;4988182;28;20378;-77
2021/06/19 09:14:16;;;;;;;5.55;1.30;;;;;;;34.24;45.19;100702.75;4993007;28;20042;-77
2021/06/19 09:16:54;;;;;;;2.65;1.45;;;;;;;34.27;45.15;100700.97;4978729;28;20476;-77
2021/06/19 09:19:25;;;;;;;2.50;1.40;;;;;;;34.48;43.78;100693.72;4966798;28;20031;-77
2021/06/19 09:22:20;;;;;;;2.13;1.40;;;;;;;34.45;44.51;100695.53;4976488;28;20037;-77
2021/06/19 09:24:50;;;;;;;3.83;1.35;;;;;;;34.63;44.00;100702.53;4959386;28;20042;-77
2021/06/19 09:27:42;;;;;;;3.67;1.50;;;;;;;34.56;44.30;100705.91;4956623;28;20481;-77
2021/06/19 09:30:19;;;;;;;3.45;1.50;;;;;;;34.70;43.19;100707.56;4986981;28;20130;-77
2021/06/19 09:32:53;;;;;;;3.78;1.35;;;;;;;34.68;43.62;100712.16;4975957;28;20040;-77
2021/06/19 09:35:30;;;;;;;5.13;1.45;;;;;;;34.86;43.88;100705.94;4973211;28;20042;-77
2021/06/19 09:37:58;;;;;;;5.50;1.45;;;;;;;34.63;43.44;100710.91;4972106;28;20041;-77
2021/06/19 09:40:33;;;;;;;3.40;1.67;;;;;;;34.77;42.86;100720.22;4960865;28;20028;-76
2021/06/19 09:43:11;;;;;;;2.20;1.58;;;;;;;34.83;42.64;100718.91;4963696;28;20133;-77
2021/06/19 09:45:38;;;;;;;2.10;1.75;;;;;;;34.91;43.44;100719.09;4975461;28;20058;-77
2021/06/19 09:48:05;;;;;;;5.20;1.75;;;;;;;34.88;43.81;100718.13;4999119;28;20025;-77
2021/06/19 09:50:31;;;;;;;3.40;1.80;;;;;;;34.89;44.33;100722.44;4960567;28;20085;-77
2021/06/19 09:53:10;;;;;;;3.40;1.63;;;;;;;35.00;44.12;100727.97;4971422;28;20034;-77
2021/06/19 09:55:36;;;;;;;3.45;1.60;;;;;;;35.07;44.12;100721.81;4972411;28;20121;-77
2021/06/19 09:58:01;;;;;;;4.13;1.77;;;;;;;34.96;45.40;100735.91;4994682;28;20066;-75
2021/06/19 10:00:37;;;;;;;2.97;1.90;;;;;;;35.13;44.78;100736.53;4955642;28;20062;-77
2021/06/19 10:03:04;;;;;;;2.92;1.90;;;;;;;35.26;43.75;100730.28;4993575;28;20038;-77
2021/06/19 10:05:29;;;;;;;4.28;1.85;;;;;;;35.41;44.10;100736.25;4978667;28;20499;-76
2021/06/19 10:07:55;;;;;;;3.53;1.80;;;;;;;35.41;43.31;100730.63;4967974;28;20038;-77
2021/06/19 10:10:21;;;;;;;6.80;1.85;;;;;;;35.49;44.04;100716.81;4963512;28;20043;-77
2021/06/19 10:12:47;;;;;;;3.67;1.60;;;;;;;35.62;42.43;100730.97;4977680;28;20109;-77
2021/06/19 10:15:15;;;;;;;6.57;1.70;;;;;;;35.49;42.00;100726.00;4965223;28;20041;-77
2021/06/19 10:17:45;;;;;;;7.38;1.95;;;;;;;35.56;42.47;100717.00;4991903;28;20035;-77
2021/06/19 10:20:14;;;;;;;7.22;1.85;;;;;;;35.46;41.71;100727.06;4978922;28;20109;-77
2021/06/19 10:22:42;;;;;;;5.32;2.13;;;;;;;35.58;42.15;100733.31;4992547;28;20030;-76
2021/06/19 10:25:11;;;;;;;14.43;5.30;;;;;;;35.60;42.17;100733.53;4972398;28;20476;-78
2021/06/19 10:27:42;;;;;;;1.77;1.55;;;;;;;35.65;43.13;100741.13;4974224;28;20030;-77
2021/06/19 10:30:08;;;;;;;6.15;1.58;;;;;;;35.68;42.32;100731.66;4973051;28;20030;-77
2021/06/19 10:32:51;;;;;;;3.33;1.52;;;;;;;35.61;43.09;100724.59;4990002;28;20117;-77
2021/06/19 10:35:19;;;;;;;4.35;1.65;;;;;;;35.71;43.48;100731.38;4990309;28;20034;-77
2021/06/19 10:37:46;;;;;;;3.40;1.40;;;;;;;35.90;42.17;100739.81;4991737;28;20401;-77
2021/06/19 10:40:27;;;;;;;8.55;1.60;;;;;;;35.80;41.72;100731.00;4974046;28;20031;-77
2021/06/19 10:42:55;;;;;;;4.30;1.60;;;;;;;35.79;40.81;100723.13;4994047;28;20046;-77
2021/06/19 10:45:30;;;;;;;3.55;1.70;;;;;;;35.81;41.84;100723.34;4991056;28;20034;-77
2021/06/19 10:48:10;;;;;;;6.30;1.80;;;;;;;35.68;41.27;100717.63;4973851;28;20034;-77
2021/06/19 10:50:38;;;;;;;1.77;1.65;;;;;;;35.84;41.21;100714.63;4983405;28;20037;-77
2021/06/19 10:53:15;;;;;;;4.20;1.60;;;;;;;35.92;41.68;100715.59;4983310;28;20038;-77
2021/06/19 10:55:44;;;;;;;1.85;1.40;;;;;;;36.03;42.27;100721.03;4940165;28;20031;-77
2021/06/19 10:58:21;;;;;;;7.53;1.63;;;;;;;36.02;41.90;100719.53;4970631;28;20107;-77
2021/06/19 11:00:56;;;;;;;3.83;1.70;;;;;;;36.08;41.30;100722.28;4990963;28;20041;-77
2021/06/19 11:03:39;;;;;;;2.75;1.60;;;;;;;36.30;42.01;100724.00;4991391;28;20464;-77
2021/06/19 11:06:21;;;;;;;6.40;1.58;;;;;;;36.11;42.05;100721.97;4971670;28;20493;-77
2021/06/19 11:09:17;;;;;;;7.38;1.70;;;;;;;36.19;41.80;100725.69;4988331;28;20117;-77
2021/06/19 11:12:01;;;;;;;4.63;1.40;;;;;;;36.30;41.38;100727.56;4990403;28;20501;-77
2021/06/19 11:14:42;;;;;;;3.95;1.88;;;;;;;36.26;42.39;100718.69;4972448;28;20127;-77
2021/06/19 11:17:10;;;;;;;3.60;1.95;;;;;;;36.49;41.72;100727.59;4971588;28;20038;-77
2021/06/19 11:19:39;;;;;;;5.45;1.67;;;;;;;36.57;41.60;100715.19;4990281;28;20022;-77